Time,TemperatureF,DewpointF,PressureIn,WindDirection,WindDirectionDegrees,WindSpeedMPH,WindSpeedGustMPH,Humidity,HourlyPrecipIn,Conditions,Clouds,dailyrainin,SoftwareType,DateUTC
2013-07-24 00:06:00,62.2,61.6,29.28,SW,225,0.0,-999.0,98,-99.99,,,0.00,Acu-Link.com,2013-07-24 05:06:00,
2013-07-24 00:21:00,61.9,61.3,29.28,ESE,112,0.0,-999.0,98,-99.99,,,0.00,Acu-Link.com,2013-07-24 05:21:00,
2013-07-24 00:36:00,61.7,61.1,29.28,NNE,22,0.0,-999.0,98,-99.99,,,0.00,Acu-Link.com,2013-07-24 05:36:00,
2013-07-24 00:51:00,61.3,60.7,29.29,SSW,202,0.0,-999.0,98,-99.99,,,0.00,Acu-Link.com,2013-07-24 05:51:00,
2013-07-24 01:06:00,60.1,59.5,29.28,SW,225,0.0,-999.0,98,-99.99,,,0.00,Acu-Link.com,2013-07-24 06:06:00,
2013-07-24 01:21:00,59.9,59.3,29.29,ESE,112,0.0,-999.0,98,-99.99,,,0.00,Acu-Link.com,2013-07-24 06:21:00,
2013-07-24 01:36:00,59.0,58.4,29.28,SSW,202,0.0,-999.0,98,-99.99,,,0.00,Acu-Link.com,2013-07-24 06:36:00,
2013-07-24 01:52:00,58.8,58.2,29.28,West,270,0.0,-999.0,98,-99.99,,,0.00,Acu-Link.com,2013-07-24 06:52:00,
2013-07-24 02:07:00,58.8,58.2,29.29,NW,315,0.0,-999.0,98,-99.99,,,0.00,Acu-Link.com,2013-07-24 07:07:00,
2013-07-24 02:22:00,58.8,58.2,29.29,WNW,292,0.0,-999.0,98,-99.99,,,0.00,Acu-Link.com,2013-07-24 07:22:00,
2013-07-24 02:37:00,58.8,58.2,29.29,West,270,0.0,-999.0,98,-99.99,,,0.00,Acu-Link.com,2013-07-24 07:37:00,
2013-07-24 02:52:00,59.4,58.8,29.29,ESE,112,0.0,-999.0,98,-99.99,,,0.00,Acu-Link.com,2013-07-24 07:52:00,
2013-07-24 03:07:00,59.4,58.8,29.28,NNE,22,0.0,-999.0,98,-99.99,,,0.00,Acu-Link.com,2013-07-24 08:07:00,
2013-07-24 03:23:00,59.4,58.8,29.29,NNE,22,0.0,-999.0,98,-99.99,,,0.00,Acu-Link.com,2013-07-24 08:23:00,
2013-07-24 03:38:00,59.4,58.8,29.29,ESE,112,0.0,-999.0,98,-99.99,,,0.00,Acu-Link.com,2013-07-24 08:38:00,
2013-07-24 03:53:00,58.8,58.2,29.29,South,180,0.0,-999.0,98,-99.99,,,0.00,Acu-Link.com,2013-07-24 08:53:00,
2013-07-24 04:08:00,58.3,57.7,29.30,North,0,0.0,-999.0,98,-99.99,,,0.00,Acu-Link.com,2013-07-24 09:08:00,
2013-07-24 04:24:00,58.6,54.1,29.30,NE,45,0.0,-999.0,85,-99.99,,,0.00,Acu-Link.com,2013-07-24 09:24:00,
2013-07-24 04:39:00,58.3,53.2,29.30,West,270,0.0,-999.0,83,-99.99,,,0.00,Acu-Link.com,2013-07-24 09:39:00,
2013-07-24 04:54:00,58.1,52.3,29.31,NNW,337,0.0,-999.0,81,-99.99,,,0.00,Acu-Link.com,2013-07-24 09:54:00,
2013-07-24 05:09:00,58.1,50.9,29.31,West,270,0.0,-999.0,77,-99.99,,,0.00,Acu-Link.com,2013-07-24 10:09:00,
2013-07-24 05:24:00,57.6,51.8,29.31,SW,225,0.0,-999.0,81,-99.99,,,0.00,Acu-Link.com,2013-07-24 10:24:00,
2013-07-24 05:39:00,56.7,51.9,29.32,WSW,247,0.0,-999.0,84,-99.99,,,0.00,Acu-Link.com,2013-07-24 10:39:00,
2013-07-24 05:54:00,57.4,49.9,29.33,WNW,292,0.0,-999.0,76,-99.99,,,0.00,Acu-Link.com,2013-07-24 10:54:00,
2013-07-24 06:09:00,58.1,48.4,29.34,NW,315,0.0,-999.0,70,-99.99,,,0.00,Acu-Link.com,2013-07-24 11:09:00,
2013-07-24 06:24:00,58.5,47.2,29.33,SW,225,0.0,-999.0,66,-99.99,,,0.00,Acu-Link.com,2013-07-24 11:24:00,
2013-07-24 06:40:00,58.5,46.8,29.32,South,180,0.0,-999.0,65,-99.99,,,0.00,Acu-Link.com,2013-07-24 11:40:00,
2013-07-24 06:55:00,58.5,46.4,29.33,WSW,247,0.0,-999.0,64,-99.99,,,0.00,Acu-Link.com,2013-07-24 11:55:00,
2013-07-24 07:10:00,59.2,47.0,29.32,East,90,0.0,-999.0,64,-99.99,,,0.00,Acu-Link.com,2013-07-24 12:10:00,
2013-07-24 07:25:00,59.9,47.3,29.34,NE,45,0.0,-999.0,63,-99.99,,,0.00,Acu-Link.com,2013-07-24 12:25:00,
2013-07-24 07:40:00,60.3,47.2,29.34,SSW,202,0.0,-999.0,62,-99.99,,,0.00,Acu-Link.com,2013-07-24 12:40:00,
2013-07-24 07:55:00,61.0,47.9,29.34,South,180,0.0,-999.0,62,-99.99,,,0.00,Acu-Link.com,2013-07-24 12:55:00,
2013-07-24 08:10:00,62.4,50.5,29.34,NNE,22,0.0,-999.0,65,-99.99,,,0.00,Acu-Link.com,2013-07-24 13:10:00,
2013-07-24 08:25:00,72.3,71.7,29.35,NNE,22,0.0,-999.0,98,-99.99,,,0.00,Acu-Link.com,2013-07-24 13:25:00,
2013-07-24 08:40:00,77.2,66.2,29.35,SSE,157,0.0,-999.0,69,-99.99,,,0.00,Acu-Link.com,2013-07-24 13:40:00,
2013-07-24 08:56:00,81.9,67.1,29.35,ENE,67,0.0,-999.0,61,-99.99,,,0.00,Acu-Link.com,2013-07-24 13:56:00,
2013-07-24 09:11:00,83.8,67.4,29.35,WNW,292,0.0,-999.0,58,-99.99,,,0.00,Acu-Link.com,2013-07-24 14:11:00,
2013-07-24 09:26:00,84.0,67.1,29.35,North,0,0.0,-999.0,57,-99.99,,,0.00,Acu-Link.com,2013-07-24 14:26:00,
2013-07-24 09:41:00,84.9,67.4,29.35,West,270,0.0,-999.0,56,-99.99,,,0.00,Acu-Link.com,2013-07-24 14:41:00,
2013-07-24 09:56:00,84.0,65.5,29.35,WSW,247,0.0,-999.0,54,-99.99,,,0.00,Acu-Link.com,2013-07-24 14:56:00,
2013-07-24 10:11:00,84.2,66.3,29.35,WSW,247,0.0,-999.0,55,-99.99,,,0.00,Acu-Link.com,2013-07-24 15:11:00,
2013-07-24 10:26:00,85.6,63.6,29.35,SW,225,0.0,-999.0,48,-99.99,,,0.00,Acu-Link.com,2013-07-24 15:26:00,
2013-07-24 10:41:00,88.7,67.0,29.35,WNW,292,0.0,-999.0,49,-99.99,,,0.00,Acu-Link.com,2013-07-24 15:41:00,
2013-07-24 10:56:00,87.4,64.0,29.35,ENE,67,0.0,-999.0,46,-99.99,,,0.00,Acu-Link.com,2013-07-24 15:56:00,
2013-07-24 11:27:00,89.6,64.8,29.34,WSW,247,0.0,-999.0,44,-99.99,,,0.00,Acu-Link.com,2013-07-24 16:27:00,
2013-07-24 11:42:00,87.4,64.7,29.34,NNE,22,0.0,-999.0,47,-99.99,,,0.00,Acu-Link.com,2013-07-24 16:42:00,
2013-07-24 11:57:00,84.9,62.4,29.35,South,180,0.0,-999.0,47,-99.99,,,0.00,Acu-Link.com,2013-07-24 16:57:00,
2013-07-24 12:12:00,86.5,63.2,29.35,NNE,22,0.0,-999.0,46,-99.99,,,0.00,Acu-Link.com,2013-07-24 17:12:00,
2013-07-24 12:27:00,85.1,62.6,29.36,WNW,292,0.0,-999.0,47,-99.99,,,0.00,Acu-Link.com,2013-07-24 17:27:00,
2013-07-24 12:42:00,86.5,65.0,29.35,ESE,112,0.0,-999.0,49,-99.99,,,0.00,Acu-Link.com,2013-07-24 17:42:00,
2013-07-24 12:57:00,86.9,61.0,29.34,West,270,0.0,-999.0,42,-99.99,,,0.00,Acu-Link.com,2013-07-24 17:57:00,
2013-07-24 13:12:00,88.2,63.5,29.35,SSW,202,0.0,-999.0,44,-99.99,,,0.00,Acu-Link.com,2013-07-24 18:12:00,
2013-07-24 13:28:00,85.5,64.1,29.34,NW,315,0.0,-999.0,49,-99.99,,,0.00,Acu-Link.com,2013-07-24 18:28:00,
2013-07-24 13:43:00,88.9,64.1,29.34,WNW,292,0.0,-999.0,44,-99.99,,,0.00,Acu-Link.com,2013-07-24 18:43:00,
2013-07-24 13:58:00,88.3,62.9,29.34,West,270,0.0,-999.0,43,-99.99,,,0.00,Acu-Link.com,2013-07-24 18:58:00,
2013-07-24 14:13:00,89.2,63.1,29.34,SSW,202,0.0,-999.0,42,-99.99,,,0.00,Acu-Link.com,2013-07-24 19:13:00,
2013-07-24 14:28:00,86.7,63.4,29.34,SSE,157,0.0,-999.0,46,-99.99,,,0.00,Acu-Link.com,2013-07-24 19:28:00,
2013-07-24 14:43:00,86.5,62.6,29.34,ESE,112,0.0,-999.0,45,-99.99,,,0.00,Acu-Link.com,2013-07-24 19:43:00,
2013-07-24 14:58:00,84.9,61.8,29.34,South,180,0.0,-999.0,46,-99.99,,,0.00,Acu-Link.com,2013-07-24 19:58:00,
2013-07-24 15:14:00,88.9,64.8,29.34,NNE,22,0.0,-999.0,45,-99.99,,,0.00,Acu-Link.com,2013-07-24 20:14:00,
2013-07-24 15:29:00,91.6,65.2,29.33,NNW,337,0.0,-999.0,42,-99.99,,,0.00,Acu-Link.com,2013-07-24 20:29:00,
2013-07-24 15:44:00,91.0,63.3,29.34,NW,315,0.0,-999.0,40,-99.99,,,0.00,Acu-Link.com,2013-07-24 20:44:00,
2013-07-24 15:59:00,94.8,61.2,29.33,NNE,22,0.0,-999.0,33,-99.99,,,0.00,Acu-Link.com,2013-07-24 20:59:00,
2013-07-24 16:14:00,88.2,60.8,29.33,South,180,0.0,-999.0,40,-99.99,,,0.00,Acu-Link.com,2013-07-24 21:14:00,
2013-07-24 16:29:00,88.2,62.2,29.33,WNW,292,0.0,-999.0,42,-99.99,,,0.00,Acu-Link.com,2013-07-24 21:29:00,
2013-07-24 16:44:00,93.0,60.4,29.32,SSE,157,0.0,-999.0,34,-99.99,,,0.00,Acu-Link.com,2013-07-24 21:44:00,
2013-07-24 16:59:00,92.1,60.5,29.32,SSW,202,0.0,-999.0,35,-99.99,,,0.00,Acu-Link.com,2013-07-24 21:59:00,
2013-07-24 17:14:00,89.2,59.5,29.32,NNW,337,0.0,-999.0,37,-99.99,,,0.00,Acu-Link.com,2013-07-24 22:14:00,
2013-07-24 17:30:00,83.1,60.1,29.32,SSE,157,0.0,-999.0,46,-99.99,,,0.00,Acu-Link.com,2013-07-24 22:30:00,
2013-07-24 17:45:00,81.5,62.7,29.32,SSW,202,0.0,-999.0,53,-99.99,,,0.00,Acu-Link.com,2013-07-24 22:45:00,
2013-07-24 18:00:00,81.5,62.7,29.31,South,180,0.0,-999.0,53,-99.99,,,0.00,Acu-Link.com,2013-07-24 23:00:00,
2013-07-24 18:15:00,79.7,64.1,29.31,SSE,157,0.0,-999.0,59,-99.99,,,0.00,Acu-Link.com,2013-07-24 23:15:00,
2013-07-24 18:30:00,81.7,62.9,29.31,SSW,202,0.0,-999.0,53,-99.99,,,0.00,Acu-Link.com,2013-07-24 23:30:00,
2013-07-24 18:45:00,82.4,62.4,29.30,SSW,202,0.0,-999.0,51,-99.99,,,0.00,Acu-Link.com,2013-07-24 23:45:00,
2013-07-24 19:00:00,81.9,63.1,29.31,SSE,157,0.0,-999.0,53,-99.99,,,0.00,Acu-Link.com,2013-07-25 00:00:00,
2013-07-24 19:15:00,81.5,62.2,29.31,NW,315,0.0,-999.0,52,-99.99,,,0.00,Acu-Link.com,2013-07-25 00:15:00,
2013-07-24 19:30:00,77.0,63.0,29.31,SSE,157,0.0,-999.0,62,-99.99,,,0.00,Acu-Link.com,2013-07-25 00:30:00,
2013-07-24 19:46:00,75.2,63.5,29.31,SSW,202,0.0,-999.0,67,-99.99,,,0.00,Acu-Link.com,2013-07-25 00:46:00,
2013-07-24 20:16:00,72.1,63.0,29.31,South,180,0.0,-999.0,73,-99.99,,,0.00,Acu-Link.com,2013-07-25 01:16:00,
2013-07-24 20:31:00,70.9,63.3,29.32,SSE,157,0.0,-999.0,77,-99.99,,,0.00,Acu-Link.com,2013-07-25 01:31:00,
2013-07-24 20:46:00,69.4,63.0,29.32,SSW,202,0.0,-999.0,80,-99.99,,,0.00,Acu-Link.com,2013-07-25 01:46:00,
2013-07-24 21:02:00,68.4,62.7,29.32,SSW,202,0.0,-999.0,82,-99.99,,,0.00,Acu-Link.com,2013-07-25 02:02:00,
2013-07-24 21:32:00,66.2,65.0,29.32,SW,225,0.0,-999.0,96,-99.99,,,0.00,Acu-Link.com,2013-07-25 02:32:00,
2013-07-24 21:47:00,65.3,64.7,29.32,SSE,157,0.0,-999.0,98,-99.99,,,0.00,Acu-Link.com,2013-07-25 02:47:00,
2013-07-24 22:02:00,64.4,63.8,29.32,SSW,202,0.0,-999.0,98,-99.99,,,0.00,Acu-Link.com,2013-07-25 03:02:00,
2013-07-24 22:17:00,64.2,63.6,29.32,SSW,202,0.0,-999.0,98,-99.99,,,0.00,Acu-Link.com,2013-07-25 03:17:00,
2013-07-24 22:32:00,64.0,63.4,29.33,SSW,202,0.0,-999.0,98,-99.99,,,0.00,Acu-Link.com,2013-07-25 03:32:00,
2013-07-24 22:47:00,63.5,62.9,29.32,South,180,0.0,-999.0,98,-99.99,,,0.00,Acu-Link.com,2013-07-25 03:47:00,
2013-07-24 23:03:00,63.3,62.7,29.32,South,180,0.0,-999.0,98,-99.99,,,0.00,Acu-Link.com,2013-07-25 04:03:00,
2013-07-24 23:18:00,62.6,62.0,29.33,SSW,202,0.0,-999.0,98,-99.99,,,0.00,Acu-Link.com,2013-07-25 04:18:00,
2013-07-24 23:33:00,62.2,61.6,29.32,SW,225,0.0,-999.0,98,-99.99,,,0.00,Acu-Link.com,2013-07-25 04:33:00,
2013-07-24 23:49:00,61.9,61.3,29.33,South,180,0.0,-999.0,98,-99.99,,,0.00,Acu-Link.com,2013-07-25 04:49:00,